sensor_id;sensor_type;location;lat;lon;timestamp;pressure;altitude;pressure_sealevel;temperature;humidity
26487;BME280;14425;56.136;40.360;2023-03-18T00:00:49;101196.72;;;0.22;51.94
26487;BME280;14425;56.136;40.360;2023-03-18T00:03:15;101196.47;;;0.03;50.78
26487;BME280;14425;56.136;40.360;2023-03-18T00:05:41;101195.59;;;0.11;52.50
26487;BME280;14425;56.136;40.360;2023-03-18T00:08:07;101204.19;;;-0.54;52.43
26487;BME280;14425;56.136;40.360;2023-03-18T00:10:33;101205.63;;;-0.40;52.13
26487;BME280;14425;56.136;40.360;2023-03-18T00:13:01;101208.78;;;-0.34;53.38
26487;BME280;14425;56.136;40.360;2023-03-18T00:15:28;101210.69;;;0.18;52.39
26487;BME280;14425;56.136;40.360;2023-03-18T00:17:54;101208.09;;;-0.49;51.98
26487;BME280;14425;56.136;40.360;2023-03-18T00:20:19;101215.59;;;-0.42;53.18
26487;BME280;14425;56.136;40.360;2023-03-18T00:22:54;101206.53;;;0.18;51.89
26487;BME280;14425;56.136;40.360;2023-03-18T00:25:22;101218.91;;;-0.18;54.01
26487;BME280;14425;56.136;40.360;2023-03-18T00:27:47;101217.59;;;-0.06;51.01
26487;BME280;14425;56.136;40.360;2023-03-18T00:30:13;101218.75;;;-0.60;52.11
26487;BME280;14425;56.136;40.360;2023-03-18T00:32:39;101228.53;;;-0.88;53.66
26487;BME280;14425;56.136;40.360;2023-03-18T00:35:05;101225.91;;;-0.97;54.08
26487;BME280;14425;56.136;40.360;2023-03-18T00:37:31;101232.56;;;-0.49;54.87
26487;BME280;14425;56.136;40.360;2023-03-18T00:40:01;101231.69;;;-0.66;53.61
26487;BME280;14425;56.136;40.360;2023-03-18T00:42:36;101233.34;;;-0.82;53.97
26487;BME280;14425;56.136;40.360;2023-03-18T00:45:08;101234.97;;;-0.99;55.20
26487;BME280;14425;56.136;40.360;2023-03-18T00:47:35;101235.53;;;-0.29;54.53
26487;BME280;14425;56.136;40.360;2023-03-18T00:50:04;101246.00;;;-0.66;52.50
26487;BME280;14425;56.136;40.360;2023-03-18T00:52:30;101238.97;;;-0.69;53.27
26487;BME280;14425;56.136;40.360;2023-03-18T00:54:58;101246.94;;;-0.41;53.57
26487;BME280;14425;56.136;40.360;2023-03-18T00:57:25;101243.66;;;-0.15;53.23
26487;BME280;14425;56.136;40.360;2023-03-18T00:59:51;101249.41;;;-0.25;52.62
26487;BME280;14425;56.136;40.360;2023-03-18T01:02:16;101251.63;;;-0.53;52.54
26487;BME280;14425;56.136;40.360;2023-03-18T01:04:42;101250.84;;;-0.36;52.47
26487;BME280;14425;56.136;40.360;2023-03-18T01:07:08;101262.81;;;-0.67;53.67
26487;BME280;14425;56.136;40.360;2023-03-18T01:09:36;101247.31;;;0.29;52.66
26487;BME280;14425;56.136;40.360;2023-03-18T01:12:07;101256.28;;;0.67;52.36
26487;BME280;14425;56.136;40.360;2023-03-18T01:14:34;101251.84;;;0.91;51.54
26487;BME280;14425;56.136;40.360;2023-03-18T01:17:01;101251.50;;;0.70;50.52
26487;BME280;14425;56.136;40.360;2023-03-18T01:19:27;101253.09;;;0.61;50.94
26487;BME280;14425;56.136;40.360;2023-03-18T01:21:53;101258.00;;;1.10;50.74
26487;BME280;14425;56.136;40.360;2023-03-18T01:24:19;101262.19;;;1.10;49.88
26487;BME280;14425;56.136;40.360;2023-03-18T01:26:45;101271.19;;;1.41;50.04
26487;BME280;14425;56.136;40.360;2023-03-18T01:29:11;101278.72;;;0.80;49.57
26487;BME280;14425;56.136;40.360;2023-03-18T01:31:36;101274.13;;;0.94;49.83
26487;BME280;14425;56.136;40.360;2023-03-18T01:34:02;101284.59;;;1.14;50.00
26487;BME280;14425;56.136;40.360;2023-03-18T01:36:28;101284.59;;;1.05;48.69
26487;BME280;14425;56.136;40.360;2023-03-18T01:38:54;101289.72;;;0.63;49.51
26487;BME280;14425;56.136;40.360;2023-03-18T01:41:23;101289.59;;;0.70;50.56
26487;BME280;14425;56.136;40.360;2023-03-18T01:43:51;101295.41;;;0.36;51.22
26487;BME280;14425;56.136;40.360;2023-03-18T01:51:49;101288.34;;;1.09;49.41
26487;BME280;14425;56.136;40.360;2023-03-18T01:54:18;101296.50;;;0.89;48.79
26487;BME280;14425;56.136;40.360;2023-03-18T01:56:46;101296.81;;;0.83;49.82
26487;BME280;14425;56.136;40.360;2023-03-18T01:59:13;101300.25;;;0.92;49.57
26487;BME280;14425;56.136;40.360;2023-03-18T02:02:04;101304.50;;;1.18;50.12
26487;BME280;14425;56.136;40.360;2023-03-18T02:04:33;101302.06;;;0.94;49.22
26487;BME280;14425;56.136;40.360;2023-03-18T02:07:01;101301.91;;;0.92;50.37
26487;BME280;14425;56.136;40.360;2023-03-18T02:09:27;101307.63;;;1.16;49.49
26487;BME280;14425;56.136;40.360;2023-03-18T02:11:54;101318.41;;;1.13;49.36
26487;BME280;14425;56.136;40.360;2023-03-18T02:14:23;101316.00;;;0.64;50.15
26487;BME280;14425;56.136;40.360;2023-03-18T02:16:56;101314.28;;;0.80;49.93
26487;BME280;14425;56.136;40.360;2023-03-18T02:19:52;101317.91;;;0.58;50.14
26487;BME280;14425;56.136;40.360;2023-03-18T02:25:15;101322.00;;;1.15;50.22
26487;BME280;14425;56.136;40.360;2023-03-18T02:27:46;101320.72;;;0.85;49.22
26487;BME280;14425;56.136;40.360;2023-03-18T02:30:18;101327.28;;;0.83;50.12
26487;BME280;14425;56.136;40.360;2023-03-18T02:32:47;101340.78;;;1.00;49.12
26487;BME280;14425;56.136;40.360;2023-03-18T02:35:15;101333.66;;;1.22;48.96
26487;BME280;14425;56.136;40.360;2023-03-18T02:37:40;101338.47;;;0.18;49.23
26487;BME280;14425;56.136;40.360;2023-03-18T02:42:38;101356.16;;;0.34;51.62
26487;BME280;14425;56.136;40.360;2023-03-18T02:45:07;101366.41;;;0.43;49.41
26487;BME280;14425;56.136;40.360;2023-03-18T02:47:39;101367.59;;;0.22;50.10
26487;BME280;14425;56.136;40.360;2023-03-18T02:50:07;101363.69;;;0.42;51.20
26487;BME280;14425;56.136;40.360;2023-03-18T02:52:33;101364.94;;;0.05;50.17
26487;BME280;14425;56.136;40.360;2023-03-18T02:54:59;101373.16;;;0.27;51.08
26487;BME280;14425;56.136;40.360;2023-03-18T02:57:26;101373.53;;;0.39;50.48
26487;BME280;14425;56.136;40.360;2023-03-18T02:59:51;101371.84;;;0.30;50.45
26487;BME280;14425;56.136;40.360;2023-03-18T03:02:17;101381.19;;;0.81;49.73
26487;BME280;14425;56.136;40.360;2023-03-18T03:04:42;101380.69;;;0.67;49.69
26487;BME280;14425;56.136;40.360;2023-03-18T03:07:08;101381.19;;;0.47;50.30
26487;BME280;14425;56.136;40.360;2023-03-18T03:09:34;101383.69;;;0.63;50.83
26487;BME280;14425;56.136;40.360;2023-03-18T03:11:59;101380.97;;;0.37;49.73
26487;BME280;14425;56.136;40.360;2023-03-18T03:14:25;101388.84;;;0.56;49.72
26487;BME280;14425;56.136;40.360;2023-03-18T03:16:51;101389.38;;;0.69;49.41
26487;BME280;14425;56.136;40.360;2023-03-18T03:19:17;101394.75;;;0.72;49.06
26487;BME280;14425;56.136;40.360;2023-03-18T03:21:42;101402.56;;;0.83;48.86
26487;BME280;14425;56.136;40.360;2023-03-18T03:24:08;101406.13;;;0.51;49.51
26487;BME280;14425;56.136;40.360;2023-03-18T03:26:34;101401.44;;;0.63;50.27
26487;BME280;14425;56.136;40.360;2023-03-18T03:29:00;101404.38;;;0.34;50.14
26487;BME280;14425;56.136;40.360;2023-03-18T03:31:26;101399.34;;;-0.06;50.16
26487;BME280;14425;56.136;40.360;2023-03-18T03:33:52;101411.50;;;0.46;50.58
26487;BME280;14425;56.136;40.360;2023-03-18T03:36:18;101407.78;;;0.51;51.06
26487;BME280;14425;56.136;40.360;2023-03-18T03:38:44;101401.38;;;0.54;50.09
26487;BME280;14425;56.136;40.360;2023-03-18T03:41:11;101405.03;;;0.41;50.07
26487;BME280;14425;56.136;40.360;2023-03-18T03:43:38;101408.53;;;0.25;50.30
26487;BME280;14425;56.136;40.360;2023-03-18T03:46:05;101416.22;;;0.59;49.84
26487;BME280;14425;56.136;40.360;2023-03-18T03:48:31;101414.75;;;0.20;50.24
26487;BME280;14425;56.136;40.360;2023-03-18T03:50:57;101411.19;;;0.76;50.47
26487;BME280;14425;56.136;40.360;2023-03-18T03:53:24;101412.75;;;0.58;49.51
26487;BME280;14425;56.136;40.360;2023-03-18T03:55:51;101418.44;;;0.15;50.97
26487;BME280;14425;56.136;40.360;2023-03-18T03:58:16;101415.03;;;0.39;50.08
26487;BME280;14425;56.136;40.360;2023-03-18T04:00:42;101414.53;;;0.84;50.68
26487;BME280;14425;56.136;40.360;2023-03-18T04:03:08;101417.41;;;0.87;50.25
26487;BME280;14425;56.136;40.360;2023-03-18T04:05:33;101422.22;;;1.35;49.40
26487;BME280;14425;56.136;40.360;2023-03-18T04:07:59;101421.03;;;0.73;49.08
26487;BME280;14425;56.136;40.360;2023-03-18T04:10:26;101425.44;;;0.58;49.77
26487;BME280;14425;56.136;40.360;2023-03-18T04:12:52;101422.13;;;0.50;49.75
26487;BME280;14425;56.136;40.360;2023-03-18T04:15:20;101434.97;;;0.77;49.75
26487;BME280;14425;56.136;40.360;2023-03-18T04:17:47;101431.88;;;0.88;49.62
26487;BME280;14425;56.136;40.360;2023-03-18T04:20:14;101430.78;;;0.77;48.95
26487;BME280;14425;56.136;40.360;2023-03-18T04:22:39;101434.22;;;1.11;48.39
26487;BME280;14425;56.136;40.360;2023-03-18T04:25:06;101443.81;;;0.80;47.92
26487;BME280;14425;56.136;40.360;2023-03-18T04:27:32;101439.44;;;1.04;48.84
26487;BME280;14425;56.136;40.360;2023-03-18T04:29:58;101444.88;;;1.24;48.52
26487;BME280;14425;56.136;40.360;2023-03-18T04:32:25;101445.41;;;1.04;47.94
26487;BME280;14425;56.136;40.360;2023-03-18T04:34:50;101450.63;;;1.39;48.03
26487;BME280;14425;56.136;40.360;2023-03-18T04:37:16;101438.69;;;1.38;49.09
26487;BME280;14425;56.136;40.360;2023-03-18T04:39:48;101453.25;;;1.15;48.25
26487;BME280;14425;56.136;40.360;2023-03-18T04:42:14;101455.78;;;1.15;48.21
26487;BME280;14425;56.136;40.360;2023-03-18T04:44:40;101456.00;;;0.67;48.53
26487;BME280;14425;56.136;40.360;2023-03-18T04:47:09;101451.69;;;0.74;49.74
26487;BME280;14425;56.136;40.360;2023-03-18T04:49:35;101453.53;;;1.18;49.06
26487;BME280;14425;56.136;40.360;2023-03-18T04:52:05;101461.25;;;1.35;47.15
26487;BME280;14425;56.136;40.360;2023-03-18T04:54:32;101457.44;;;1.65;47.56
26487;BME280;14425;56.136;40.360;2023-03-18T04:56:57;101454.44;;;1.60;46.76
26487;BME280;14425;56.136;40.360;2023-03-18T04:59:23;101460.09;;;0.82;47.38
26487;BME280;14425;56.136;40.360;2023-03-18T05:01:49;101457.53;;;0.73;49.74
26487;BME280;14425;56.136;40.360;2023-03-18T05:04:14;101462.91;;;1.35;49.27
26487;BME280;14425;56.136;40.360;2023-03-18T05:06:41;101463.63;;;1.84;47.75
26487;BME280;14425;56.136;40.360;2023-03-18T05:09:06;101465.97;;;0.90;48.52
26487;BME280;14425;56.136;40.360;2023-03-18T05:11:33;101472.53;;;0.39;48.40
26487;BME280;14425;56.136;40.360;2023-03-18T05:13:58;101469.03;;;1.03;50.09
26487;BME280;14425;56.136;40.360;2023-03-18T05:16:24;101475.06;;;0.39;50.41
26487;BME280;14425;56.136;40.360;2023-03-18T05:18:50;101477.50;;;0.70;50.52
26487;BME280;14425;56.136;40.360;2023-03-18T05:21:16;101482.19;;;0.18;49.91
26487;BME280;14425;56.136;40.360;2023-03-18T05:23:42;101491.03;;;-0.26;50.55
26487;BME280;14425;56.136;40.360;2023-03-18T05:26:08;101483.75;;;0.65;49.86
26487;BME280;14425;56.136;40.360;2023-03-18T05:28:36;101495.84;;;0.43;49.61
26487;BME280;14425;56.136;40.360;2023-03-18T05:31:02;101491.97;;;1.21;49.94
26487;BME280;14425;56.136;40.360;2023-03-18T05:33:28;101486.53;;;2.37;46.53
26487;BME280;14425;56.136;40.360;2023-03-18T05:35:54;101485.78;;;2.55;46.53
26487;BME280;14425;56.136;40.360;2023-03-18T05:38:19;101485.16;;;2.84;46.56
26487;BME280;14425;56.136;40.360;2023-03-18T05:40:45;101488.66;;;3.04;45.79
26487;BME280;14425;56.136;40.360;2023-03-18T05:43:11;101480.78;;;3.28;44.98
26487;BME280;14425;56.136;40.360;2023-03-18T05:45:37;101484.50;;;3.41;45.82
26487;BME280;14425;56.136;40.360;2023-03-18T05:48:06;101495.91;;;2.90;45.10
26487;BME280;14425;56.136;40.360;2023-03-18T05:50:34;101503.34;;;3.24;45.65
26487;BME280;14425;56.136;40.360;2023-03-18T05:53:02;101504.97;;;2.69;44.06
26487;BME280;14425;56.136;40.360;2023-03-18T05:55:28;101510.00;;;2.95;44.71
26487;BME280;14425;56.136;40.360;2023-03-18T05:57:55;101499.25;;;4.09;43.54
26487;BME280;14425;56.136;40.360;2023-03-18T06:00:21;101496.72;;;4.09;43.80
26487;BME280;14425;56.136;40.360;2023-03-18T06:02:47;101501.00;;;4.57;41.88
26487;BME280;14425;56.136;40.360;2023-03-18T06:05:13;101501.06;;;4.29;42.37
26487;BME280;14425;56.136;40.360;2023-03-18T06:07:39;101495.34;;;4.80;41.42
26487;BME280;14425;56.136;40.360;2023-03-18T06:10:06;101508.97;;;4.70;41.55
26487;BME280;14425;56.136;40.360;2023-03-18T06:12:32;101503.16;;;4.81;42.73
26487;BME280;14425;56.136;40.360;2023-03-18T06:14:58;101509.53;;;5.16;41.41
26487;BME280;14425;56.136;40.360;2023-03-18T06:17:23;101497.53;;;5.75;41.17
26487;BME280;14425;56.136;40.360;2023-03-18T06:19:49;101508.09;;;6.62;41.34
26487;BME280;14425;56.136;40.360;2023-03-18T06:22:15;101506.78;;;7.10;40.59
26487;BME280;14425;56.136;40.360;2023-03-18T06:24:44;101513.59;;;5.43;39.17
26487;BME280;14425;56.136;40.360;2023-03-18T06:27:09;101521.78;;;3.21;43.23
26487;BME280;14425;56.136;40.360;2023-03-18T06:29:35;101528.00;;;2.18;46.05
26487;BME280;14425;56.136;40.360;2023-03-18T06:32:01;101534.63;;;2.60;45.35
26487;BME280;14425;56.136;40.360;2023-03-18T06:34:27;101531.94;;;3.39;45.68
26487;BME280;14425;56.136;40.360;2023-03-18T06:36:52;101526.47;;;3.81;44.96
26487;BME280;14425;56.136;40.360;2023-03-18T06:39:18;101529.25;;;4.12;43.10
26487;BME280;14425;56.136;40.360;2023-03-18T06:41:44;101519.84;;;5.97;43.45
26487;BME280;14425;56.136;40.360;2023-03-18T06:44:10;101510.75;;;8.06;39.47
26487;BME280;14425;56.136;40.360;2023-03-18T06:46:38;101504.38;;;8.47;38.24
26487;BME280;14425;56.136;40.360;2023-03-18T06:49:06;101509.25;;;9.15;36.88
26487;BME280;14425;56.136;40.360;2023-03-18T06:51:58;101510.44;;;9.82;36.04
26487;BME280;14425;56.136;40.360;2023-03-18T06:54:43;101511.53;;;10.76;35.92
26487;BME280;14425;56.136;40.360;2023-03-18T06:57:09;101504.78;;;10.38;34.47
26487;BME280;14425;56.136;40.360;2023-03-18T06:59:34;101509.84;;;10.37;35.00
26487;BME280;14425;56.136;40.360;2023-03-18T07:02:01;101505.16;;;11.39;34.41
26487;BME280;14425;56.136;40.360;2023-03-18T07:04:26;101506.25;;;11.01;31.69
26487;BME280;14425;56.136;40.360;2023-03-18T07:06:52;101514.00;;;11.01;33.49
26487;BME280;14425;56.136;40.360;2023-03-18T07:09:18;101525.53;;;10.66;32.19
26487;BME280;14425;56.136;40.360;2023-03-18T07:11:44;101512.28;;;11.02;33.36
26487;BME280;14425;56.136;40.360;2023-03-18T07:14:11;101502.28;;;11.63;32.71
26487;BME280;14425;56.136;40.360;2023-03-18T07:16:39;101519.78;;;11.95;32.46
26487;BME280;14425;56.136;40.360;2023-03-18T07:19:05;101507.13;;;12.15;31.51
26487;BME280;14425;56.136;40.360;2023-03-18T07:21:32;101513.91;;;12.57;32.22
26487;BME280;14425;56.136;40.360;2023-03-18T07:23:57;101508.03;;;11.72;29.65
26487;BME280;14425;56.136;40.360;2023-03-18T07:26:24;101508.16;;;13.09;31.66
26487;BME280;14425;56.136;40.360;2023-03-18T07:28:49;101514.09;;;12.61;29.96
26487;BME280;14425;56.136;40.360;2023-03-18T07:31:16;101506.91;;;12.71;29.70
26487;BME280;14425;56.136;40.360;2023-03-18T07:33:41;101506.53;;;13.59;30.54
26487;BME280;14425;56.136;40.360;2023-03-18T07:36:07;101512.34;;;12.76;30.51
26487;BME280;14425;56.136;40.360;2023-03-18T07:38:33;101511.19;;;11.53;31.15
26487;BME280;14425;56.136;40.360;2023-03-18T07:40:58;101508.16;;;13.57;30.64
26487;BME280;14425;56.136;40.360;2023-03-18T07:43:24;101496.38;;;14.49;28.90
26487;BME280;14425;56.136;40.360;2023-03-18T07:45:49;101503.47;;;14.17;27.86
26487;BME280;14425;56.136;40.360;2023-03-18T07:48:15;101510.66;;;14.75;29.47
26487;BME280;14425;56.136;40.360;2023-03-18T07:50:40;101513.94;;;13.20;28.35
26487;BME280;14425;56.136;40.360;2023-03-18T07:53:06;101508.16;;;13.41;27.68
26487;BME280;14425;56.136;40.360;2023-03-18T07:55:32;101516.34;;;13.48;29.78
26487;BME280;14425;56.136;40.360;2023-03-18T07:57:57;101499.44;;;15.32;27.42
26487;BME280;14425;56.136;40.360;2023-03-18T08:00:23;101501.25;;;15.92;28.34
26487;BME280;14425;56.136;40.360;2023-03-18T08:02:50;101507.59;;;16.39;26.84
26487;BME280;14425;56.136;40.360;2023-03-18T08:05:15;101502.84;;;15.88;27.48
26487;BME280;14425;56.136;40.360;2023-03-18T08:07:43;101507.41;;;15.94;27.15
26487;BME280;14425;56.136;40.360;2023-03-18T08:10:09;101501.94;;;15.87;26.93
26487;BME280;14425;56.136;40.360;2023-03-18T08:12:36;101504.84;;;16.57;25.60
26487;BME280;14425;56.136;40.360;2023-03-18T08:15:02;101509.34;;;14.84;27.39
26487;BME280;14425;56.136;40.360;2023-03-18T08:17:29;101501.84;;;16.26;27.51
26487;BME280;14425;56.136;40.360;2023-03-18T08:19:55;101492.59;;;16.12;26.32
26487;BME280;14425;56.136;40.360;2023-03-18T08:22:21;101494.38;;;16.78;25.02
26487;BME280;14425;56.136;40.360;2023-03-18T08:24:48;101499.78;;;15.20;25.83
26487;BME280;14425;56.136;40.360;2023-03-18T08:27:14;101504.72;;;16.54;26.81
26487;BME280;14425;56.136;40.360;2023-03-18T08:29:40;101510.59;;;17.37;24.73
26487;BME280;14425;56.136;40.360;2023-03-18T08:32:05;101507.81;;;17.32;26.14
26487;BME280;14425;56.136;40.360;2023-03-18T08:34:31;101513.94;;;14.71;25.40
26487;BME280;14425;56.136;40.360;2023-03-18T08:36:57;101517.94;;;13.96;25.98
26487;BME280;14425;56.136;40.360;2023-03-18T08:39:23;101515.75;;;15.10;28.08
26487;BME280;14425;56.136;40.360;2023-03-18T08:41:48;101515.13;;;14.78;25.95
26487;BME280;14425;56.136;40.360;2023-03-18T08:44:14;101506.72;;;14.84;25.78
26487;BME280;14425;56.136;40.360;2023-03-18T08:46:40;101496.75;;;15.87;25.51
26487;BME280;14425;56.136;40.360;2023-03-18T08:49:06;101500.94;;;16.05;27.09
26487;BME280;14425;56.136;40.360;2023-03-18T08:51:32;101496.06;;;15.52;26.05
26487;BME280;14425;56.136;40.360;2023-03-18T08:53:58;101495.63;;;16.23;26.76
26487;BME280;14425;56.136;40.360;2023-03-18T08:56:25;101505.31;;;14.54;25.61
26487;BME280;14425;56.136;40.360;2023-03-18T08:58:51;101503.91;;;14.09;26.54
26487;BME280;14425;56.136;40.360;2023-03-18T09:01:18;101498.28;;;16.67;27.22
26487;BME280;14425;56.136;40.360;2023-03-18T09:03:46;101490.38;;;15.81;26.57
26487;BME280;14425;56.136;40.360;2023-03-18T09:06:11;101485.25;;;17.83;25.01
26487;BME280;14425;56.136;40.360;2023-03-18T09:08:37;101482.38;;;17.99;24.17
26487;BME280;14425;56.136;40.360;2023-03-18T09:11:04;101481.44;;;16.58;24.57
26487;BME280;14425;56.136;40.360;2023-03-18T09:13:32;101487.06;;;17.35;25.85
26487;BME280;14425;56.136;40.360;2023-03-18T09:15:57;101485.66;;;17.69;25.17
26487;BME280;14425;56.136;40.360;2023-03-18T09:18:23;101489.25;;;17.71;24.07
26487;BME280;14425;56.136;40.360;2023-03-18T09:20:49;101484.69;;;17.66;23.79
26487;BME280;14425;56.136;40.360;2023-03-18T09:23:15;101479.19;;;16.24;23.60
26487;BME280;14425;56.136;40.360;2023-03-18T09:25:43;101479.41;;;16.72;26.12
26487;BME280;14425;56.136;40.360;2023-03-18T09:28:09;101480.06;;;18.07;23.93
26487;BME280;14425;56.136;40.360;2023-03-18T09:30:35;101484.28;;;16.42;23.42
26487;BME280;14425;56.136;40.360;2023-03-18T09:33:02;101474.56;;;17.75;24.78
26487;BME280;14425;56.136;40.360;2023-03-18T09:35:30;101475.56;;;18.28;24.75
26487;BME280;14425;56.136;40.360;2023-03-18T09:37:56;101467.19;;;18.39;21.82
26487;BME280;14425;56.136;40.360;2023-03-18T09:40:26;101470.16;;;18.50;23.38
26487;BME280;14425;56.136;40.360;2023-03-18T09:45:55;101472.63;;;17.94;25.05
26487;BME280;14425;56.136;40.360;2023-03-18T09:49:19;101471.59;;;17.40;23.76
26487;BME280;14425;56.136;40.360;2023-03-18T09:54:01;101461.91;;;15.64;25.94
26487;BME280;14425;56.136;40.360;2023-03-18T09:56:31;101466.28;;;17.14;25.83
26487;BME280;14425;56.136;40.360;2023-03-18T09:59:05;101456.44;;;17.78;24.04
26487;BME280;14425;56.136;40.360;2023-03-18T10:01:42;101466.88;;;14.83;24.94
26487;BME280;14425;56.136;40.360;2023-03-18T10:04:26;101459.84;;;15.38;25.47
26487;BME280;14425;56.136;40.360;2023-03-18T10:06:57;101451.09;;;15.55;25.29
26487;BME280;14425;56.136;40.360;2023-03-18T10:09:41;101458.00;;;15.74;24.79
26487;BME280;14425;56.136;40.360;2023-03-18T10:17:39;101440.03;;;17.10;24.38
26487;BME280;14425;56.136;40.360;2023-03-18T10:38:50;101412.06;;;16.17;24.96
26487;BME280;14425;56.136;40.360;2023-03-18T10:41:33;101413.03;;;14.25;24.66
26487;BME280;14425;56.136;40.360;2023-03-18T10:44:12;101415.72;;;14.45;24.98
26487;BME280;14425;56.136;40.360;2023-03-18T10:46:40;101423.28;;;13.88;26.41
26487;BME280;14425;56.136;40.360;2023-03-18T10:49:15;101413.38;;;15.84;24.29
26487;BME280;14425;56.136;40.360;2023-03-18T10:51:54;101405.34;;;15.60;24.19
26487;BME280;14425;56.136;40.360;2023-03-18T10:56:52;101403.53;;;16.19;23.52
26487;BME280;14425;56.136;40.360;2023-03-18T10:59:20;101399.19;;;16.63;22.20
26487;BME280;14425;56.136;40.360;2023-03-18T11:01:48;101400.31;;;17.91;22.18
26487;BME280;14425;56.136;40.360;2023-03-18T11:04:17;101400.72;;;17.04;22.30
26487;BME280;14425;56.136;40.360;2023-03-18T11:09:30;101390.91;;;15.86;22.18
26487;BME280;14425;56.136;40.360;2023-03-18T11:12:01;101390.75;;;14.84;23.04
26487;BME280;14425;56.136;40.360;2023-03-18T11:14:28;101397.56;;;14.82;23.84
26487;BME280;14425;56.136;40.360;2023-03-18T11:17:02;101399.63;;;15.67;23.71
26487;BME280;14425;56.136;40.360;2023-03-18T11:19:35;101407.56;;;13.17;24.92
26487;BME280;14425;56.136;40.360;2023-03-18T11:22:14;101401.16;;;14.48;25.28
26487;BME280;14425;56.136;40.360;2023-03-18T11:24:42;101394.88;;;15.18;24.45
26487;BME280;14425;56.136;40.360;2023-03-18T11:29:53;101396.44;;;15.14;25.17
26487;BME280;14425;56.136;40.360;2023-03-18T11:32:33;101381.81;;;15.17;24.62
26487;BME280;14425;56.136;40.360;2023-03-18T11:35:04;101372.97;;;16.15;24.03
26487;BME280;14425;56.136;40.360;2023-03-18T11:37:34;101380.31;;;17.16;22.90
26487;BME280;14425;56.136;40.360;2023-03-18T11:42:39;101383.00;;;15.64;24.32
26487;BME280;14425;56.136;40.360;2023-03-18T11:47:49;101366.13;;;17.32;23.10
26487;BME280;14425;56.136;40.360;2023-03-18T11:50:19;101368.50;;;15.49;24.13
26487;BME280;14425;56.136;40.360;2023-03-18T12:03:29;101357.56;;;16.88;23.53
26487;BME280;14425;56.136;40.360;2023-03-18T12:23:08;101345.19;;;15.93;24.20
26487;BME280;14425;56.136;40.360;2023-03-18T12:25:56;101347.88;;;15.13;24.30
26487;BME280;14425;56.136;40.360;2023-03-18T12:47:06;101320.88;;;12.94;25.00
26487;BME280;14425;56.136;40.360;2023-03-18T12:49:33;101322.31;;;12.25;25.84
26487;BME280;14425;56.136;40.360;2023-03-18T12:52:10;101327.91;;;10.42;26.64
26487;BME280;14425;56.136;40.360;2023-03-18T12:54:42;101331.06;;;9.97;28.71
26487;BME280;14425;56.136;40.360;2023-03-18T12:57:13;101324.41;;;12.15;28.18
26487;BME280;14425;56.136;40.360;2023-03-18T12:59:51;101321.13;;;12.82;28.94
26487;BME280;14425;56.136;40.360;2023-03-18T13:05:26;101323.09;;;14.81;23.46
26487;BME280;14425;56.136;40.360;2023-03-18T13:10:40;101325.13;;;14.13;26.09
26487;BME280;14425;56.136;40.360;2023-03-18T13:13:11;101320.78;;;13.78;24.13
26487;BME280;14425;56.136;40.360;2023-03-18T13:15:41;101328.94;;;13.67;24.75
26487;BME280;14425;56.136;40.360;2023-03-18T13:18:16;101321.06;;;15.34;25.37
26487;BME280;14425;56.136;40.360;2023-03-18T13:20:44;101315.72;;;15.52;24.16
26487;BME280;14425;56.136;40.360;2023-03-18T13:37:16;101318.81;;;13.21;29.49
26487;BME280;14425;56.136;40.360;2023-03-18T13:42:36;101308.53;;;13.39;25.49
26487;BME280;14425;56.136;40.360;2023-03-18T13:45:27;101305.78;;;12.37;28.89
26487;BME280;14425;56.136;40.360;2023-03-18T13:48:28;101309.03;;;12.18;29.24
26487;BME280;14425;56.136;40.360;2023-03-18T13:50:56;101309.13;;;12.68;27.50
26487;BME280;14425;56.136;40.360;2023-03-18T13:53:31;101300.72;;;13.74;28.58
26487;BME280;14425;56.136;40.360;2023-03-18T13:56:02;101293.88;;;15.06;26.31
26487;BME280;14425;56.136;40.360;2023-03-18T14:13:49;101295.84;;;13.11;28.86
26487;BME280;14425;56.136;40.360;2023-03-18T14:16:22;101290.34;;;13.05;27.49
26487;BME280;14425;56.136;40.360;2023-03-18T14:21:26;101282.44;;;13.02;30.06
26487;BME280;14425;56.136;40.360;2023-03-18T14:26:39;101268.28;;;13.82;27.17
26487;BME280;14425;56.136;40.360;2023-03-18T14:34:22;101285.75;;;12.99;29.48
26487;BME280;14425;56.136;40.360;2023-03-18T14:42:01;101280.63;;;13.17;30.31
26487;BME280;14425;56.136;40.360;2023-03-18T14:44:38;101277.50;;;12.90;30.21
26487;BME280;14425;56.136;40.360;2023-03-18T14:47:15;101273.16;;;13.58;29.08
26487;BME280;14425;56.136;40.360;2023-03-18T14:49:51;101284.13;;;11.00;27.72
26487;BME280;14425;56.136;40.360;2023-03-18T14:52:29;101307.41;;;7.54;32.91
26487;BME280;14425;56.136;40.360;2023-03-18T14:54:59;101310.06;;;5.36;33.90
26487;BME280;14425;56.136;40.360;2023-03-18T14:57:26;101310.19;;;5.38;35.50
26487;BME280;14425;56.136;40.360;2023-03-18T14:59:52;101316.69;;;5.04;36.31
26487;BME280;14425;56.136;40.360;2023-03-18T15:02:24;101315.88;;;4.63;36.79
26487;BME280;14425;56.136;40.360;2023-03-18T15:04:55;101317.22;;;4.50;37.35
26487;BME280;14425;56.136;40.360;2023-03-18T15:07:31;101318.44;;;4.74;38.09
26487;BME280;14425;56.136;40.360;2023-03-18T15:10:05;101315.75;;;4.62;37.19
26487;BME280;14425;56.136;40.360;2023-03-18T15:12:31;101325.81;;;4.21;37.61
26487;BME280;14425;56.136;40.360;2023-03-18T15:14:57;101327.47;;;4.20;38.69
26487;BME280;14425;56.136;40.360;2023-03-18T15:17:24;101314.53;;;4.09;38.09
26487;BME280;14425;56.136;40.360;2023-03-18T15:19:59;101320.00;;;3.65;38.19
26487;BME280;14425;56.136;40.360;2023-03-18T15:22:28;101304.38;;;6.14;38.09
26487;BME280;14425;56.136;40.360;2023-03-18T15:25:01;101293.19;;;8.79;34.80